createdAt,value
2018-01-25T12:05:13.839Z,72.94
2018-01-25T12:06:13.831Z,72.94
2018-01-25T12:07:13.822Z,72.37
2018-01-25T12:08:13.819Z,72.37
2018-01-25T12:09:13.816Z,72.37
2018-01-25T12:10:13.818Z,72.85
2018-01-25T12:11:13.811Z,72.85
2018-01-25T12:12:13.799Z,73.03
2018-01-25T12:13:13.801Z,72.27
2018-01-25T12:14:13.796Z,71.89
2018-01-25T12:15:13.793Z,72.08
2018-01-25T12:16:13.790Z,72.37
2018-01-25T12:17:13.805Z,72.94
2018-01-25T12:18:13.779Z,73.03
2018-01-25T12:19:13.781Z,72.94
2018-01-25T12:20:13.777Z,72.94
2018-01-25T12:21:13.775Z,72.56
2018-01-25T12:22:13.765Z,73.03
2018-01-25T12:23:13.762Z,73.13
2018-01-25T12:24:13.767Z,73.80
2018-01-25T12:25:13.758Z,73.32
2018-01-25T12:26:13.757Z,73.51
2018-01-25T12:27:13.753Z,73.76
2018-01-25T12:28:13.748Z,73.57
2018-01-25T12:29:13.741Z,73.66
2018-01-25T12:30:13.741Z,74.18
2018-01-25T12:31:13.740Z,73.66
2018-01-25T12:32:13.733Z,73.47
2018-01-25T12:33:13.734Z,74.04
2018-01-25T12:34:13.724Z,74.62
2018-01-25T12:35:13.724Z,74.43
2018-01-25T12:36:13.724Z,73.51
2018-01-25T12:37:13.717Z,73.38
2018-01-25T12:38:13.706Z,73.51
2018-01-25T12:39:13.702Z,73.13
2018-01-25T12:40:13.733Z,72.85
2018-01-25T12:41:13.798Z,73.51
2018-01-25T12:42:13.697Z,72.94
2018-01-25T12:43:13.698Z,72.94
2018-01-25T12:44:13.690Z,72.56
2018-01-25T12:45:13.680Z,73.03
2018-01-25T12:46:13.681Z,73.13
2018-01-25T12:47:13.676Z,73.03
2018-01-25T12:48:13.676Z,73.13
2018-01-25T12:49:13.685Z,73.61
2018-01-25T12:50:13.663Z,73.51
2018-01-25T12:51:13.665Z,73.61
2018-01-25T12:52:13.663Z,73.80
2018-01-25T12:53:13.656Z,73.80
2018-01-25T12:54:13.650Z,73.70
2018-01-25T12:55:13.653Z,74.27
2018-01-25T12:56:13.640Z,74.18
2018-01-25T12:57:13.644Z,74.94
2018-01-25T12:58:13.694Z,74.08
2018-01-25T12:59:13.635Z,74.65
2018-01-25T13:00:13.629Z,75.89
2018-01-25T13:01:13.624Z,75.79
2018-01-25T13:02:13.627Z,76.14
2018-01-25T13:03:13.758Z,76.14
2018-01-25T13:04:13.617Z,76.33
2018-01-25T13:05:13.613Z,76.04
2018-01-25T13:06:13.606Z,76.42
2018-01-25T13:07:13.602Z,75.95
2018-01-25T13:08:13.607Z,76.33
2018-01-25T13:09:13.600Z,77.09
2018-01-25T13:10:13.594Z,77.00
2018-01-25T13:11:13.588Z,76.42
2018-01-25T13:12:13.583Z,75.85
2018-01-25T13:13:13.578Z,76.04
2018-01-25T13:14:13.578Z,75.67
2018-01-25T13:15:13.574Z,75.76
2018-01-25T13:16:13.569Z,75.85
2018-01-25T13:17:13.568Z,75.76
2018-01-25T13:18:13.573Z,76.08
2018-01-25T13:19:13.560Z,75.51
2018-01-25T13:20:13.561Z,75.70
2018-01-25T13:21:13.558Z,74.75
2018-01-25T13:22:13.548Z,74.08
2018-01-25T13:23:13.538Z,74.56
2018-01-25T13:24:13.544Z,74.08
2018-01-25T13:25:13.535Z,73.99
2018-01-25T13:26:13.532Z,73.61
2018-01-25T13:27:13.522Z,73.32
2018-01-25T13:28:13.520Z,72.56
2018-01-25T13:29:13.517Z,73.22
2018-01-25T13:30:13.556Z,73.22
2018-01-25T13:31:13.517Z,73.03
2018-01-25T13:32:13.506Z,72.75
2018-01-25T13:33:13.511Z,73.03
2018-01-25T13:34:13.519Z,73.03
2018-01-25T13:35:13.500Z,72.94
2018-01-25T13:36:13.495Z,72.17
2018-01-25T13:37:13.492Z,72.94
2018-01-25T13:38:13.480Z,71.98
2018-01-25T13:39:13.481Z,72.37
2018-01-25T13:40:13.482Z,72.65
2018-01-25T13:41:13.474Z,72.46
2018-01-25T13:42:13.466Z,72.46
2018-01-25T13:43:13.463Z,72.37
2018-01-25T13:44:13.470Z,72.37
2018-01-25T13:45:13.462Z,72.27
2018-01-25T13:46:13.467Z,72.94
2018-01-25T13:47:13.464Z,72.56
2018-01-25T13:48:13.448Z,72.75
2018-01-25T13:49:13.442Z,72.94
2018-01-25T13:50:13.445Z,73.13
2018-01-25T13:51:13.442Z,72.85
2018-01-25T13:52:13.450Z,72.65
2018-01-25T13:53:13.431Z,72.27
2018-01-25T13:54:13.419Z,72.46
2018-01-25T13:55:13.414Z,72.75
2018-01-25T13:56:13.415Z,72.46
2018-01-25T13:57:13.412Z,72.56
2018-01-25T13:58:13.407Z,72.27
2018-01-25T13:59:13.400Z,72.46
2018-01-25T14:00:13.402Z,72.37
2018-01-25T14:01:13.448Z,72.37
2018-01-25T14:02:13.399Z,72.37
2018-01-25T14:03:13.395Z,72.56
2018-01-25T14:04:13.386Z,72.17
2018-01-25T14:05:13.384Z,72.17
2018-01-25T14:06:13.379Z,72.56
2018-01-25T14:07:13.382Z,72.56
2018-01-25T14:08:13.376Z,72.94
2018-01-25T14:09:13.375Z,72.75
2018-01-25T14:10:13.366Z,73.03
2018-01-25T14:11:13.359Z,72.75
2018-01-25T14:12:13.356Z,73.03
2018-01-25T14:13:13.353Z,72.75
2018-01-25T14:14:13.356Z,73.03
2018-01-25T14:15:13.349Z,72.46
2018-01-25T14:16:13.344Z,72.75
2018-01-25T14:17:13.340Z,72.94
2018-01-25T14:18:13.332Z,73.03
2018-01-25T14:19:13.330Z,72.37
2018-01-25T14:20:13.378Z,72.56
2018-01-25T14:21:13.326Z,72.27
2018-01-25T14:22:13.418Z,72.37
2018-01-25T14:23:13.321Z,72.37
2018-01-25T14:24:13.311Z,73.03
2018-01-25T14:25:13.312Z,72.94
2018-01-25T14:26:13.308Z,72.94
2018-01-25T14:27:13.305Z,73.13
2018-01-25T14:28:13.298Z,72.94
2018-01-25T14:29:13.313Z,73.22
2018-01-25T14:30:13.294Z,72.56
2018-01-25T14:31:13.290Z,72.75
2018-01-25T14:32:13.291Z,73.03
2018-01-25T14:33:13.286Z,73.70
2018-01-25T14:34:13.277Z,72.75
2018-01-25T14:35:13.275Z,73.22
2018-01-25T14:36:13.282Z,73.61
2018-01-25T14:37:13.268Z,73.51
2018-01-25T14:38:13.264Z,73.51
2018-01-25T14:39:13.262Z,72.85
2018-01-25T14:40:13.257Z,73.51
2018-01-25T14:41:13.254Z,73.80
2018-01-25T14:42:13.256Z,73.61
2018-01-25T14:43:13.248Z,73.80
2018-01-25T14:44:13.241Z,73.61
2018-01-25T14:45:13.291Z,73.80
2018-01-25T14:46:13.238Z,73.76
2018-01-25T14:47:13.233Z,73.61
2018-01-25T14:48:13.228Z,73.61
2018-01-25T14:49:13.223Z,73.57
2018-01-25T14:50:13.222Z,73.32
2018-01-25T14:51:13.212Z,73.57
2018-01-25T14:52:13.214Z,73.85
2018-01-25T14:53:13.210Z,73.80
2018-01-25T14:54:13.204Z,73.38
2018-01-25T14:55:13.200Z,73.57
2018-01-25T14:56:13.199Z,73.57
2018-01-25T14:57:13.189Z,73.51
2018-01-25T14:58:13.214Z,73.66
2018-01-25T14:59:13.185Z,73.85
2018-01-25T15:00:13.183Z,73.76
2018-01-25T15:01:13.176Z,73.66
2018-01-25T15:02:13.180Z,73.57
2018-01-25T15:03:13.170Z,74.43
2018-01-25T15:04:13.169Z,74.27
2018-01-25T15:05:13.168Z,74.14
2018-01-25T15:06:13.155Z,74.65
2018-01-25T15:07:13.153Z,73.57
2018-01-25T15:08:13.167Z,73.76
2018-01-25T15:09:13.150Z,74.24
2018-01-25T15:10:13.220Z,73.57
2018-01-25T15:11:13.139Z,73.57
2018-01-25T15:12:13.134Z,74.14
2018-01-25T15:13:13.133Z,73.76
2018-01-25T15:14:13.137Z,73.66
2018-01-25T15:15:13.130Z,73.95
2018-01-25T15:16:13.149Z,73.85
2018-01-25T15:17:13.112Z,73.57
2018-01-25T15:18:13.113Z,73.76
2018-01-25T15:19:13.113Z,73.57
2018-01-25T15:20:13.259Z,73.95
2018-01-25T15:21:13.103Z,74.04
2018-01-25T15:22:13.098Z,74.14
2018-01-25T15:23:13.101Z,74.33
2018-01-25T15:24:13.095Z,74.43
2018-01-25T15:25:13.089Z,73.57
2018-01-25T15:26:13.078Z,74.33
2018-01-25T15:27:13.078Z,74.14
2018-01-25T15:28:13.072Z,74.24
2018-01-25T15:29:13.067Z,74.24
2018-01-25T15:30:13.071Z,74.43
2018-01-25T15:31:13.069Z,74.04
2018-01-25T15:32:13.356Z,74.52
2018-01-25T15:33:13.055Z,74.71
2018-01-25T15:34:13.051Z,74.62
2018-01-25T15:35:13.050Z,74.62
2018-01-25T15:36:13.041Z,74.52
2018-01-25T15:37:13.040Z,74.71
2018-01-25T15:38:13.028Z,74.80
2018-01-25T15:39:13.029Z,74.43
2018-01-25T15:40:13.031Z,74.71
2018-01-25T15:41:13.030Z,74.62
2018-01-25T15:42:13.017Z,74.52
2018-01-25T15:43:13.316Z,74.33
2018-01-25T15:44:13.012Z,74.33
2018-01-25T15:45:13.001Z,74.80
2018-01-25T15:46:13.008Z,74.80
2018-01-25T15:47:13.003Z,74.90
2018-01-25T15:48:12.991Z,74.90
2018-01-25T15:49:12.992Z,74.43
2018-01-25T15:50:12.992Z,74.14
2018-01-25T15:51:12.986Z,74.71
2018-01-25T15:52:12.983Z,74.62
2018-01-25T15:53:12.980Z,74.71
2018-01-25T15:54:12.975Z,74.71
2018-01-25T15:55:13.019Z,74.62
2018-01-25T15:56:12.966Z,74.71
2018-01-25T15:57:12.962Z,74.52
2018-01-25T15:58:12.955Z,74.52
2018-01-25T15:59:12.952Z,74.71
2018-01-25T16:00:12.950Z,74.52
2018-01-25T16:01:12.947Z,74.80
2018-01-25T16:02:12.953Z,74.90
2018-01-25T16:03:12.944Z,75.28
2018-01-25T16:04:12.936Z,75.19
2018-01-25T16:05:12.931Z,75.28
2018-01-25T16:06:12.933Z,74.90
2018-01-25T16:07:12.929Z,74.71
2018-01-25T16:08:12.927Z,75.28
2018-01-25T16:09:12.925Z,75.95
2018-01-25T16:10:12.911Z,76.04
2018-01-25T16:11:12.925Z,76.33
2018-01-25T16:12:12.911Z,76.42
2018-01-25T16:13:12.908Z,76.04
2018-01-25T16:14:12.900Z,76.42
2018-01-25T16:15:12.896Z,76.04
2018-01-25T16:16:12.890Z,76.33
2018-01-25T16:17:12.887Z,76.23
2018-01-25T16:18:13.192Z,76.42
2018-01-25T16:19:12.890Z,76.71
2018-01-25T16:20:12.879Z,75.95
2018-01-25T16:21:12.877Z,76.42
2018-01-25T16:22:12.869Z,75.85
2018-01-25T16:23:12.871Z,76.42
2018-01-25T16:24:12.865Z,76.42
2018-01-25T16:25:12.859Z,76.33
2018-01-25T16:26:12.860Z,76.42
2018-01-25T16:27:12.867Z,76.61
2018-01-25T16:28:12.847Z,76.61
2018-01-25T16:29:12.858Z,76.52
2018-01-25T16:30:12.842Z,76.52
2018-01-25T16:31:12.839Z,76.23
2018-01-25T16:32:12.838Z,76.90
2018-01-25T16:33:12.834Z,75.95
2018-01-25T16:34:12.827Z,76.52
2018-01-25T16:35:13.123Z,76.23
2018-01-25T16:36:12.824Z,76.04
2018-01-25T16:37:12.822Z,76.33
2018-01-25T16:38:12.810Z,76.14
2018-01-25T16:39:12.810Z,76.04
2018-01-25T16:40:12.799Z,76.42
2018-01-25T16:41:13.096Z,76.61
2018-01-25T16:42:12.802Z,76.61
2018-01-25T16:43:12.791Z,76.33
2018-01-25T16:44:12.785Z,76.29
2018-01-25T16:45:12.781Z,76.42
2018-01-25T16:46:12.801Z,76.42
2018-01-25T16:47:12.776Z,77.37
2018-01-25T16:48:12.813Z,77.09
2018-01-25T16:49:12.767Z,77.15
2018-01-25T16:50:12.759Z,76.86
2018-01-25T16:51:12.753Z,77.00
2018-01-25T16:52:12.759Z,77.24
2018-01-25T16:53:12.750Z,77.53
2018-01-25T16:54:12.745Z,77.24
2018-01-25T16:55:12.743Z,77.53
2018-01-25T16:56:12.736Z,77.15
2018-01-25T16:57:12.732Z,77.76
2018-01-25T16:58:12.733Z,77.34
2018-01-25T16:59:12.733Z,77.81
2018-01-25T17:00:12.729Z,77.85
2018-01-25T17:01:12.729Z,77.43
2018-01-25T17:02:12.755Z,77.62
2018-01-25T17:03:12.715Z,77.53
2018-01-25T17:04:12.707Z,77.47
2018-01-25T17:05:12.703Z,77.53
2018-01-25T17:06:12.698Z,77.62
2018-01-25T17:07:12.693Z,77.37
2018-01-25T17:08:12.695Z,77.34
2018-01-25T17:09:12.687Z,77.43
2018-01-25T17:10:12.681Z,77.91
2018-01-25T17:11:12.684Z,78.00
2018-01-25T17:12:12.678Z,78.00
2018-01-25T17:13:12.685Z,77.91
2018-01-25T17:14:12.664Z,77.81
2018-01-25T17:15:12.659Z,77.91
2018-01-25T17:16:12.654Z,77.95
2018-01-25T17:17:12.650Z,77.81
2018-01-25T17:18:12.656Z,77.91
2018-01-25T17:19:12.646Z,77.91
2018-01-25T17:20:12.640Z,77.91
2018-01-25T17:21:12.642Z,77.91
2018-01-25T17:22:12.626Z,77.72
2018-01-25T17:23:12.622Z,77.81
2018-01-25T17:24:12.627Z,77.53
2018-01-25T17:25:12.619Z,77.53
2018-01-25T17:26:12.612Z,77.72
2018-01-25T17:27:12.611Z,78.00
2018-01-25T17:28:12.603Z,77.72
2018-01-25T17:29:12.597Z,78.00
2018-01-25T17:30:12.596Z,78.10
2018-01-25T17:31:12.592Z,78.29
2018-01-25T17:32:12.587Z,78.29
2018-01-25T17:33:12.583Z,78.48
2018-01-25T17:34:12.586Z,78.19
2018-01-25T17:35:12.581Z,78.19
2018-01-25T17:36:12.571Z,78.19
2018-01-25T17:37:12.574Z,78.19
2018-01-25T17:38:12.559Z,78.10
2018-01-25T17:39:12.562Z,78.00
2018-01-25T17:40:12.556Z,77.81
2018-01-25T17:41:12.557Z,77.72
2018-01-25T17:42:12.542Z,78.29
2018-01-25T17:43:12.597Z,78.29
2018-01-25T17:44:12.540Z,78.19
2018-01-25T17:45:12.533Z,77.91
2018-01-25T17:46:12.536Z,78.00
2018-01-25T17:47:12.530Z,78.48
2018-01-25T17:48:12.517Z,78.48
2018-01-25T17:49:12.517Z,77.72
2018-01-25T17:50:12.518Z,77.81
2018-01-25T17:51:12.516Z,77.85
2018-01-25T17:52:12.510Z,77.43
2018-01-25T17:53:12.503Z,78.00
2018-01-25T17:54:12.499Z,78.00
2018-01-25T17:55:12.492Z,78.29
2018-01-25T17:56:12.492Z,78.00
2018-01-25T17:57:12.491Z,78.00
2018-01-25T17:58:12.482Z,78.19
2018-01-25T17:59:12.476Z,77.91
2018-01-25T18:00:12.470Z,78.00
2018-01-25T18:01:12.465Z,78.00
2018-01-25T18:02:12.473Z,77.91
2018-01-25T18:03:12.466Z,77.91
2018-01-25T18:04:12.459Z,78.19
2018-01-25T18:05:12.455Z,78.00
2018-01-25T18:06:12.455Z,78.38
2018-01-25T18:07:12.452Z,78.00
2018-01-25T18:08:12.444Z,78.38
2018-01-25T18:09:12.438Z,78.10
2018-01-25T18:10:12.431Z,78.29
2018-01-25T18:11:12.427Z,78.19
2018-01-25T18:12:12.435Z,78.48
2018-01-25T18:13:12.424Z,78.48
2018-01-25T18:14:12.416Z,78.10
2018-01-25T18:15:12.466Z,79.05
2018-01-25T18:16:12.408Z,78.96
2018-01-25T18:17:12.404Z,78.96
2018-01-25T18:18:12.404Z,79.05
2018-01-25T18:19:12.400Z,78.67
2018-01-25T18:20:12.395Z,78.67
2018-01-25T18:21:12.387Z,78.67
2018-01-25T18:22:12.391Z,78.86
2018-01-25T18:23:12.385Z,78.96
2018-01-25T18:24:12.381Z,78.96
2018-01-25T18:25:12.374Z,78.96
2018-01-25T18:26:12.365Z,79.14
2018-01-25T18:27:12.366Z,79.05
2018-01-25T18:28:12.361Z,79.14
2018-01-25T18:29:12.354Z,78.96
2018-01-25T18:30:12.356Z,78.57
2018-01-25T18:31:12.350Z,78.57
2018-01-25T18:32:12.345Z,78.96
2018-01-25T18:33:12.338Z,78.77
2018-01-25T18:34:12.337Z,78.96
2018-01-25T18:35:12.412Z,78.29
2018-01-25T18:36:12.331Z,79.14
2018-01-25T18:37:12.329Z,78.96
2018-01-25T18:38:12.320Z,78.86
2018-01-25T18:39:12.314Z,78.96
2018-01-25T18:40:12.308Z,79.05
2018-01-25T18:41:12.302Z,78.96
2018-01-25T18:42:12.606Z,78.67
2018-01-25T18:43:12.298Z,78.67
2018-01-25T18:44:12.292Z,78.77
2018-01-25T18:45:12.289Z,78.48
2018-01-25T18:46:12.286Z,78.77
2018-01-25T18:47:12.284Z,78.67
2018-01-25T18:48:12.832Z,79.33
2018-01-25T18:49:12.280Z,78.67
2018-01-25T18:50:12.270Z,78.48
2018-01-25T18:51:12.265Z,78.96
2018-01-25T18:52:12.262Z,78.77
2018-01-25T18:53:12.257Z,79.05
2018-01-25T18:54:12.550Z,79.43
2018-01-25T18:55:12.245Z,79.14
2018-01-25T18:56:12.243Z,79.72
2018-01-25T18:57:12.246Z,80.19
2018-01-25T18:58:12.240Z,80.10
2018-01-25T18:59:12.238Z,79.81
2018-01-25T19:00:12.227Z,80.10
2018-01-25T19:01:12.223Z,80.86
2018-01-25T19:02:12.221Z,80.19
2018-01-25T19:03:12.218Z,80.00
2018-01-25T19:04:12.216Z,80.00
2018-01-25T19:05:12.557Z,80.57
2018-01-25T19:06:12.199Z,80.29
2018-01-25T19:07:12.267Z,80.57
2018-01-25T19:08:12.198Z,80.86
2018-01-25T19:09:12.191Z,80.57
2018-01-25T19:10:12.184Z,80.57
2018-01-25T19:11:12.480Z,80.47
2018-01-25T19:12:12.172Z,80.66
2018-01-25T19:13:12.168Z,80.76
2018-01-25T19:14:12.167Z,81.14
2018-01-25T19:15:12.162Z,80.95
2018-01-25T19:16:12.154Z,80.86
2018-01-25T19:17:12.449Z,80.95
2018-01-25T19:18:12.153Z,81.05
2018-01-25T19:19:12.145Z,81.14
2018-01-25T19:20:12.146Z,81.52
2018-01-25T19:21:12.136Z,81.14
2018-01-25T19:22:12.133Z,81.33
2018-01-25T19:23:12.426Z,81.24
2018-01-25T19:24:12.126Z,81.24
2018-01-25T19:25:12.118Z,81.05
2018-01-25T19:26:12.112Z,81.05
2018-01-25T19:27:12.104Z,81.24
2018-01-25T19:28:12.105Z,81.90
2018-01-25T19:29:12.097Z,82.09
2018-01-25T19:30:12.101Z,82.67
2018-01-25T19:31:12.092Z,82.28
2018-01-25T19:32:12.092Z,82.95
2018-01-25T19:33:12.084Z,82.67
2018-01-25T19:34:12.080Z,82.81
2018-01-25T19:35:12.070Z,82.48
2018-01-25T19:36:12.069Z,82.48
2018-01-25T19:37:12.065Z,82.19
2018-01-25T19:38:12.064Z,82.19
2018-01-25T19:39:12.051Z,82.24
2018-01-25T19:40:12.136Z,82.34
2018-01-25T19:41:12.042Z,81.67
2018-01-25T19:42:12.036Z,81.67
2018-01-25T19:43:12.031Z,81.96
2018-01-25T19:44:12.026Z,82.05
2018-01-25T19:45:12.019Z,82.62
2018-01-25T19:46:12.027Z,82.24
2018-01-25T19:47:12.015Z,82.15
2018-01-25T19:48:12.009Z,82.24
2018-01-25T19:49:12.001Z,81.96
2018-01-25T19:50:11.998Z,81.48
2018-01-25T19:51:11.995Z,81.01
2018-01-25T19:52:11.987Z,81.38
2018-01-25T19:53:11.981Z,80.63
2018-01-25T19:54:11.976Z,80.82
2018-01-25T19:55:11.972Z,80.63
2018-01-25T19:56:11.968Z,80.82
2018-01-25T19:57:11.968Z,80.63
2018-01-25T19:58:11.957Z,81.01
2018-01-25T19:59:11.949Z,80.72
2018-01-25T20:00:11.942Z,80.82
2018-01-25T20:01:11.941Z,81.48
2018-01-25T20:02:11.939Z,81.29
2018-01-25T20:03:11.931Z,81.86
2018-01-25T20:04:11.927Z,81.77
2018-01-25T20:05:11.934Z,82.15
2018-01-25T20:06:11.914Z,81.77
2018-01-25T20:07:11.912Z,82.62
2018-01-25T20:08:11.906Z,82.15
2018-01-25T20:09:11.898Z,82.71
2018-01-25T20:10:11.890Z,82.58
2018-01-25T20:11:11.883Z,82.49
2018-01-25T20:12:11.886Z,82.71
2018-01-25T20:13:11.879Z,83.44
2018-01-25T20:14:11.882Z,83.44
2018-01-25T20:15:11.860Z,84.01
2018-01-25T20:16:11.855Z,83.72
2018-01-25T20:17:11.852Z,84.10
2018-01-25T20:18:11.851Z,84.29
2018-01-25T20:19:11.844Z,84.58
2018-01-25T20:20:11.832Z,85.05
2018-01-25T20:21:11.825Z,84.48
2018-01-25T20:22:11.828Z,84.29
2018-01-25T20:23:11.818Z,84.86
2018-01-25T20:24:11.812Z,85.15
2018-01-25T20:25:11.808Z,85.24
2018-01-25T20:26:11.800Z,85.15
2018-01-25T20:27:11.793Z,85.43
2018-01-25T20:28:11.803Z,85.53
2018-01-25T20:29:11.787Z,85.72
2018-01-25T20:30:11.774Z,85.62
2018-01-25T20:31:11.768Z,86.19
2018-01-25T20:32:11.759Z,86.29
2018-01-25T20:33:11.753Z,86.67
2018-01-25T20:34:11.751Z,87.14
2018-01-25T20:35:11.746Z,86.86
2018-01-25T20:36:11.738Z,87.43
2018-01-25T20:37:11.735Z,86.95
2018-01-25T20:38:11.732Z,87.24
2018-01-25T20:39:11.725Z,87.24
2018-01-25T20:40:11.718Z,87.24
2018-01-25T20:41:11.713Z,87.62
2018-01-25T20:42:11.701Z,87.52
2018-01-25T20:43:11.699Z,87.62
2018-01-25T20:44:11.696Z,87.62
2018-01-25T20:45:11.692Z,87.24
2018-01-25T20:46:11.679Z,87.43
2018-01-25T20:47:11.677Z,87.52
2018-01-25T20:48:11.666Z,87.81
2018-01-25T20:49:11.762Z,87.81
2018-01-25T20:50:11.664Z,87.71
2018-01-25T20:51:11.655Z,87.62
2018-01-25T20:52:11.642Z,87.81
2018-01-25T20:53:11.642Z,87.71
2018-01-25T20:54:11.639Z,87.81
2018-01-25T20:55:11.628Z,88.00
2018-01-25T20:56:11.626Z,87.90
2018-01-25T20:57:11.619Z,87.81
2018-01-25T20:58:11.609Z,88.00
2018-01-25T20:59:11.605Z,88.00
2018-01-25T21:00:11.604Z,88.09
2018-01-25T21:01:11.594Z,87.71
2018-01-25T21:02:11.588Z,87.71
2018-01-25T21:03:11.580Z,88.09
2018-01-25T21:04:11.574Z,88.09
2018-01-25T21:05:11.566Z,87.90
2018-01-25T21:06:11.566Z,87.52
2018-01-25T21:07:11.559Z,87.29
2018-01-25T21:08:11.552Z,87.24
2018-01-25T21:09:11.541Z,87.81
2018-01-25T21:10:11.542Z,87.86
2018-01-25T21:11:11.536Z,87.71
2018-01-25T21:12:11.531Z,87.90
2018-01-25T21:13:11.526Z,88.00
2018-01-25T21:14:11.557Z,87.71
2018-01-25T21:15:11.509Z,88.19
2018-01-25T21:16:11.510Z,88.28
2018-01-25T21:17:11.498Z,87.29
2018-01-25T21:18:11.494Z,87.14
2018-01-25T21:19:11.484Z,87.71
2018-01-25T21:20:11.479Z,87.71
2018-01-25T21:21:11.470Z,87.34
2018-01-25T21:22:11.468Z,87.14
2018-01-25T21:23:11.467Z,87.19
2018-01-25T21:24:11.451Z,87.24
2018-01-25T21:25:11.466Z,87.24
2018-01-25T21:26:11.448Z,87.62
2018-01-25T21:27:11.438Z,87.24
2018-01-25T21:28:11.435Z,87.29
2018-01-25T21:29:11.429Z,87.14
2018-01-25T21:30:11.668Z,87.43
2018-01-25T21:31:11.413Z,87.62
2018-01-25T21:32:11.410Z,87.90
2018-01-25T21:33:11.402Z,87.62
2018-01-25T21:34:11.396Z,87.43
2018-01-25T21:35:11.393Z,87.57
2018-01-25T21:36:11.385Z,87.90
2018-01-25T21:37:11.378Z,87.90
2018-01-25T21:38:11.377Z,87.52
2018-01-25T21:39:11.371Z,87.81
2018-01-25T21:40:11.362Z,88.09
2018-01-25T21:41:11.359Z,88.19
2018-01-25T21:42:11.355Z,87.95
2018-01-25T21:43:11.352Z,88.19
2018-01-25T21:44:11.359Z,88.00
2018-01-25T21:45:11.335Z,88.09
2018-01-25T21:46:11.330Z,87.81
2018-01-25T21:47:11.320Z,88.00
2018-01-25T21:48:11.315Z,88.34
2018-01-25T21:49:11.316Z,87.57
2018-01-25T21:50:11.304Z,88.05
2018-01-25T21:51:11.294Z,88.19
2018-01-25T21:52:11.300Z,88.34
2018-01-25T21:53:11.286Z,88.71
2018-01-25T21:54:11.282Z,88.81
2018-01-25T21:55:11.278Z,88.47
2018-01-25T21:56:11.268Z,88.57
2018-01-25T21:57:11.263Z,88.57
2018-01-25T21:58:11.261Z,88.67
2018-01-25T21:59:11.256Z,88.09
2018-01-25T22:00:11.248Z,88.90
2018-01-25T22:01:11.246Z,88.38
2018-01-25T22:02:11.232Z,88.53
2018-01-25T22:03:11.230Z,88.34
2018-01-25T22:04:11.229Z,88.38
2018-01-25T22:05:11.223Z,88.67
2018-01-25T22:06:11.214Z,88.67
2018-01-25T22:07:11.204Z,88.57
2018-01-25T22:08:11.213Z,88.57
2018-01-25T22:09:11.191Z,88.47
2018-01-25T22:10:11.188Z,88.67
2018-01-25T22:11:11.184Z,88.81
2018-01-25T22:12:11.173Z,88.47
2018-01-25T22:13:11.170Z,88.34
2018-01-25T22:14:11.171Z,88.47
2018-01-25T22:15:11.161Z,88.76
2018-01-25T22:16:11.171Z,88.38
2018-01-25T22:17:11.154Z,88.67
2018-01-25T22:18:11.140Z,88.57
2018-01-25T22:19:11.135Z,88.43
2018-01-25T22:20:11.138Z,88.53
2018-01-25T22:21:11.132Z,88.57
2018-01-25T22:22:11.115Z,88.38
2018-01-25T22:23:11.111Z,88.47
2018-01-25T22:24:11.124Z,88.00
2018-01-25T22:25:11.100Z,88.76
2018-01-25T22:26:11.099Z,88.85
2018-01-25T22:27:11.095Z,88.28
2018-01-25T22:28:11.088Z,88.85
2018-01-25T22:29:11.082Z,88.57
2018-01-25T22:30:11.084Z,88.57
2018-01-25T22:31:11.086Z,88.90
2018-01-25T22:32:11.081Z,88.57
2018-01-25T22:33:11.061Z,88.47
2018-01-25T22:34:11.049Z,88.95
2018-01-25T22:35:11.041Z,89.33
2018-01-25T22:36:11.043Z,88.81
2018-01-25T22:37:11.038Z,88.76
2018-01-25T22:38:11.033Z,89.19
2018-01-25T22:39:11.033Z,88.28
2018-01-25T22:40:11.036Z,88.76
2018-01-25T22:41:11.011Z,88.90
2018-01-25T22:42:11.022Z,89.09
2018-01-25T22:43:11.004Z,88.76
2018-01-25T22:44:10.996Z,88.57
2018-01-25T22:45:10.994Z,88.85
2018-01-25T22:46:10.981Z,88.95
2018-01-25T22:47:10.975Z,88.90
2018-01-25T22:48:10.995Z,88.81
2018-01-25T22:49:10.969Z,88.76
2018-01-25T22:50:10.963Z,88.90
2018-01-25T22:51:11.062Z,89.04
2018-01-25T22:52:10.952Z,89.19
2018-01-25T22:53:10.939Z,89.00
2018-01-25T22:54:10.941Z,89.33
2018-01-25T22:55:10.937Z,89.33
2018-01-25T22:56:10.943Z,89.23
2018-01-25T22:57:10.935Z,89.23
2018-01-25T22:58:10.920Z,89.09
2018-01-25T22:59:10.910Z,89.23
2018-01-25T23:00:10.909Z,89.23
2018-01-25T23:01:10.902Z,89.28
2018-01-25T23:02:10.895Z,89.14
2018-01-25T23:03:10.887Z,89.38
2018-01-25T23:04:10.892Z,89.38
2018-01-25T23:05:10.873Z,89.09
2018-01-25T23:06:10.883Z,89.28
2018-01-25T23:07:10.866Z,89.67
2018-01-25T23:08:10.960Z,89.61
2018-01-25T23:09:10.854Z,89.42
2018-01-25T23:10:10.851Z,89.33
2018-01-25T23:11:10.845Z,89.19
2018-01-25T23:12:10.856Z,89.38
2018-01-25T23:13:10.836Z,89.86
2018-01-25T23:14:10.822Z,89.67
2018-01-25T23:15:10.817Z,89.14
2018-01-25T23:16:10.817Z,89.67
2018-01-25T23:17:10.816Z,90.14
2018-01-25T23:18:10.801Z,89.95
2018-01-25T23:19:10.796Z,90.05
2018-01-25T23:20:10.890Z,89.76
2018-01-25T23:21:10.786Z,89.95
2018-01-25T23:22:10.785Z,89.95
2018-01-25T23:23:10.781Z,89.95
2018-01-25T23:24:10.768Z,89.76
2018-01-25T23:25:10.769Z,89.76
2018-01-25T23:26:10.767Z,89.47
2018-01-25T23:27:10.756Z,89.95
2018-01-25T23:28:10.768Z,89.95
2018-01-25T23:29:10.743Z,89.95
2018-01-25T23:30:10.737Z,90.05
2018-01-25T23:31:10.730Z,89.95
2018-01-25T23:32:10.728Z,89.95
2018-01-25T23:33:10.720Z,89.95
2018-01-25T23:34:10.715Z,89.76
2018-01-25T23:35:10.709Z,89.47
2018-01-25T23:36:10.871Z,89.86
2018-01-25T23:37:10.693Z,89.95
2018-01-25T23:38:10.691Z,89.95
2018-01-25T23:39:10.692Z,89.95
2018-01-25T23:40:10.677Z,90.42
2018-01-25T23:41:10.673Z,89.95
2018-01-25T23:42:10.672Z,90.14
2018-01-25T23:43:10.666Z,90.05
2018-01-25T23:44:10.668Z,90.23
2018-01-25T23:45:10.656Z,90.23
2018-01-25T23:46:10.641Z,90.52
2018-01-25T23:47:10.636Z,90.42
2018-01-25T23:48:10.639Z,90.23
2018-01-25T23:49:10.629Z,90.33
2018-01-25T23:50:10.619Z,90.23
2018-01-25T23:51:10.616Z,90.14
2018-01-25T23:52:10.873Z,89.95
2018-01-25T23:53:10.606Z,89.47
2018-01-25T23:54:10.603Z,89.76
2018-01-25T23:55:10.593Z,89.67
2018-01-25T23:56:10.590Z,89.57
2018-01-25T23:57:10.581Z,89.47
2018-01-25T23:58:10.578Z,89.86
2018-01-25T23:59:10.575Z,90.42
